sensor_id;sensor_type;location;lat;lon;timestamp;pressure;altitude;pressure_sealevel;temperature;humidity
69219;BME280;56232;53.384;-2.732;2023-02-21T00:01:34;101547.89;;;11.32;39.64
69219;BME280;56232;53.384;-2.732;2023-02-21T00:04:00;101551.46;;;10.85;39.54
69219;BME280;56232;53.384;-2.732;2023-02-21T00:06:26;101558.20;;;10.70;39.54
69219;BME280;56232;53.384;-2.732;2023-02-21T00:08:51;101557.32;;;11.04;39.80
69219;BME280;56232;53.384;-2.732;2023-02-21T00:11:17;101562.07;;;11.04;39.78
69219;BME280;56232;53.384;-2.732;2023-02-21T00:13:43;101565.45;;;11.07;39.73
69219;BME280;56232;53.384;-2.732;2023-02-21T00:16:08;101566.76;;;10.99;39.91
69219;BME280;56232;53.384;-2.732;2023-02-21T00:18:34;101561.22;;;11.12;39.88
69219;BME280;56232;53.384;-2.732;2023-02-21T00:21:00;101558.49;;;11.19;39.82
69219;BME280;56232;53.384;-2.732;2023-02-21T00:23:25;101550.08;;;10.73;39.74
69219;BME280;56232;53.384;-2.732;2023-02-21T00:25:51;101551.50;;;11.10;39.85
69219;BME280;56232;53.384;-2.732;2023-02-21T00:28:17;101549.05;;;11.07;39.91
69219;BME280;56232;53.384;-2.732;2023-02-21T00:30:42;101548.64;;;10.81;40.07
69219;BME280;56232;53.384;-2.732;2023-02-21T00:33:08;101549.26;;;10.08;39.87
69219;BME280;56232;53.384;-2.732;2023-02-21T00:35:34;101549.35;;;10.34;40.00
69219;BME280;56232;53.384;-2.732;2023-02-21T00:37:59;101551.30;;;10.18;40.34
69219;BME280;56232;53.384;-2.732;2023-02-21T00:40:25;101552.63;;;10.20;40.30
69219;BME280;56232;53.384;-2.732;2023-02-21T00:42:51;101556.70;;;10.83;40.49
69219;BME280;56232;53.384;-2.732;2023-02-21T00:45:16;101557.38;;;10.33;40.22
69219;BME280;56232;53.384;-2.732;2023-02-21T00:47:42;101555.50;;;9.85;40.39
69219;BME280;56232;53.384;-2.732;2023-02-21T00:50:08;101554.22;;;10.15;40.33
69219;BME280;56232;53.384;-2.732;2023-02-21T00:52:33;101551.17;;;10.05;40.40
69219;BME280;56232;53.384;-2.732;2023-02-21T00:54:59;101543.63;;;10.63;40.12
69219;BME280;56232;53.384;-2.732;2023-02-21T00:57:25;101541.70;;;9.99;40.26
69219;BME280;56232;53.384;-2.732;2023-02-21T00:59:51;101543.40;;;10.52;40.43
69219;BME280;56232;53.384;-2.732;2023-02-21T01:02:16;101542.56;;;9.85;40.70
69219;BME280;56232;53.384;-2.732;2023-02-21T01:04:42;101541.53;;;10.47;40.73
69219;BME280;56232;53.384;-2.732;2023-02-21T01:07:08;101541.50;;;10.47;40.55
69219;BME280;56232;53.384;-2.732;2023-02-21T01:09:33;101541.93;;;9.85;40.54
69219;BME280;56232;53.384;-2.732;2023-02-21T01:11:59;101539.44;;;10.56;40.43
69219;BME280;56232;53.384;-2.732;2023-02-21T01:14:25;101538.37;;;10.56;40.29
69219;BME280;56232;53.384;-2.732;2023-02-21T01:16:51;101536.81;;;10.53;40.45
69219;BME280;56232;53.384;-2.732;2023-02-21T01:19:16;101535.34;;;9.96;40.32
69219;BME280;56232;53.384;-2.732;2023-02-21T01:21:42;101529.85;;;10.09;40.30
69219;BME280;56232;53.384;-2.732;2023-02-21T01:24:11;101527.39;;;9.94;40.46
69219;BME280;56232;53.384;-2.732;2023-02-21T01:26:33;101528.40;;;9.47;40.53
69219;BME280;56232;53.384;-2.732;2023-02-21T01:28:59;101525.08;;;9.98;40.52
69219;BME280;56232;53.384;-2.732;2023-02-21T01:31:25;101529.43;;;10.51;40.44
69219;BME280;56232;53.384;-2.732;2023-02-21T01:33:50;101523.57;;;10.43;40.40
69219;BME280;56232;53.384;-2.732;2023-02-21T01:36:16;101526.30;;;9.85;40.51
69219;BME280;56232;53.384;-2.732;2023-02-21T01:38:41;101526.09;;;9.87;40.43
69219;BME280;56232;53.384;-2.732;2023-02-21T01:41:07;101527.13;;;10.41;40.50
69219;BME280;56232;53.384;-2.732;2023-02-21T01:43:33;101525.30;;;10.24;40.55
69219;BME280;56232;53.384;-2.732;2023-02-21T01:45:58;101525.99;;;10.32;40.49
69219;BME280;56232;53.384;-2.732;2023-02-21T01:48:25;101523.51;;;9.79;40.50
69219;BME280;56232;53.384;-2.732;2023-02-21T01:50:51;101523.50;;;10.42;40.46
69219;BME280;56232;53.384;-2.732;2023-02-21T01:53:20;101523.85;;;9.78;40.55
69219;BME280;56232;53.384;-2.732;2023-02-21T01:55:43;101525.21;;;9.81;40.53
69219;BME280;56232;53.384;-2.732;2023-02-21T01:58:07;101521.51;;;10.45;40.45
69219;BME280;56232;53.384;-2.732;2023-02-21T02:00:33;101519.46;;;9.85;40.26
69219;BME280;56232;53.384;-2.732;2023-02-21T02:03:00;101515.50;;;9.80;40.29
69219;BME280;56232;53.384;-2.732;2023-02-21T02:05:26;101514.43;;;9.80;40.33
69219;BME280;56232;53.384;-2.732;2023-02-21T02:07:51;101512.48;;;10.40;40.26
69219;BME280;56232;53.384;-2.732;2023-02-21T02:10:16;101510.57;;;10.41;40.15
69219;BME280;56232;53.384;-2.732;2023-02-21T02:12:58;101507.24;;;10.53;40.18
69219;BME280;56232;53.384;-2.732;2023-02-21T02:15:15;101504.16;;;9.49;40.08
69219;BME280;56232;53.384;-2.732;2023-02-21T02:17:40;101503.36;;;10.00;39.98
69219;BME280;56232;53.384;-2.732;2023-02-21T02:24:57;101493.78;;;10.48;40.15
69219;BME280;56232;53.384;-2.732;2023-02-21T02:32:21;101490.10;;;10.53;40.13
69219;BME280;56232;53.384;-2.732;2023-02-21T02:34:45;101488.29;;;9.98;40.11
69219;BME280;56232;53.384;-2.732;2023-02-21T02:37:06;101487.38;;;10.46;40.09
69219;BME280;56232;53.384;-2.732;2023-02-21T02:39:30;101487.47;;;9.77;40.18
69219;BME280;56232;53.384;-2.732;2023-02-21T02:41:56;101487.17;;;10.39;40.02
69219;BME280;56232;53.384;-2.732;2023-02-21T02:44:19;101487.35;;;10.41;40.04
69219;BME280;56232;53.384;-2.732;2023-02-21T02:46:42;101485.48;;;9.71;40.13
69219;BME280;56232;53.384;-2.732;2023-02-21T02:49:11;101481.32;;;9.66;40.19
69219;BME280;56232;53.384;-2.732;2023-02-21T02:51:33;101477.91;;;10.03;40.40
69219;BME280;56232;53.384;-2.732;2023-02-21T02:53:58;101474.09;;;9.91;40.45
69219;BME280;56232;53.384;-2.732;2023-02-21T02:56:24;101472.52;;;9.36;40.36
69219;BME280;56232;53.384;-2.732;2023-02-21T02:58:52;101470.46;;;10.02;40.31
69219;BME280;56232;53.384;-2.732;2023-02-21T03:01:29;101467.08;;;9.39;40.25
69219;BME280;56232;53.384;-2.732;2023-02-21T03:03:51;101467.22;;;10.04;40.22
69219;BME280;56232;53.384;-2.732;2023-02-21T03:06:16;101469.20;;;10.86;40.54
69219;BME280;56232;53.384;-2.732;2023-02-21T03:08:38;101464.20;;;9.71;40.45
69219;BME280;56232;53.384;-2.732;2023-02-21T03:11:02;101465.56;;;9.57;40.50
69219;BME280;56232;53.384;-2.732;2023-02-21T03:13:31;101461.64;;;9.54;40.44
69219;BME280;56232;53.384;-2.732;2023-02-21T03:15:53;101458.56;;;9.50;40.51
69219;BME280;56232;53.384;-2.732;2023-02-21T03:18:19;101455.07;;;9.82;40.65
69219;BME280;56232;53.384;-2.732;2023-02-21T03:20:42;101454.16;;;9.28;40.72
69219;BME280;56232;53.384;-2.732;2023-02-21T03:23:08;101454.46;;;9.17;40.83
69219;BME280;56232;53.384;-2.732;2023-02-21T03:25:33;101457.18;;;9.58;40.81
69219;BME280;56232;53.384;-2.732;2023-02-21T03:27:59;101457.44;;;10.12;40.92
69219;BME280;56232;53.384;-2.732;2023-02-21T03:30:23;101457.85;;;9.06;40.91
69219;BME280;56232;53.384;-2.732;2023-02-21T03:32:51;101454.61;;;10.13;40.86
69219;BME280;56232;53.384;-2.732;2023-02-21T03:35:15;101454.12;;;9.53;40.84
69219;BME280;56232;53.384;-2.732;2023-02-21T03:37:42;101451.33;;;9.00;40.86
69219;BME280;56232;53.384;-2.732;2023-02-21T03:40:10;101447.49;;;9.12;40.74
69219;BME280;56232;53.384;-2.732;2023-02-21T03:42:32;101443.92;;;9.75;40.64
69219;BME280;56232;53.384;-2.732;2023-02-21T03:44:57;101436.15;;;9.68;40.55
69219;BME280;56232;53.384;-2.732;2023-02-21T03:47:23;101432.96;;;9.13;40.51
69219;BME280;56232;53.384;-2.732;2023-02-21T03:49:50;101433.25;;;9.10;40.44
69219;BME280;56232;53.384;-2.732;2023-02-21T03:52:15;101433.82;;;9.46;40.52
69219;BME280;56232;53.384;-2.732;2023-02-21T03:54:41;101432.02;;;8.76;40.61
69219;BME280;56232;53.384;-2.732;2023-02-21T03:57:06;101436.32;;;9.78;40.60
69219;BME280;56232;53.384;-2.732;2023-02-21T03:59:32;101433.29;;;9.50;40.64
69219;BME280;56232;53.384;-2.732;2023-02-21T04:01:57;101430.40;;;9.23;40.74
69219;BME280;56232;53.384;-2.732;2023-02-21T04:04:23;101430.57;;;8.85;40.90
69219;BME280;56232;53.384;-2.732;2023-02-21T04:06:50;101426.31;;;9.03;41.04
69219;BME280;56232;53.384;-2.732;2023-02-21T04:09:15;101423.99;;;8.30;41.21
69219;BME280;56232;53.384;-2.732;2023-02-21T04:11:42;101421.84;;;8.56;41.34
69219;BME280;56232;53.384;-2.732;2023-02-21T04:14:06;101420.93;;;8.37;41.43
69219;BME280;56232;53.384;-2.732;2023-02-21T04:16:32;101418.83;;;7.75;41.41
69219;BME280;56232;53.384;-2.732;2023-02-21T04:18:57;101416.71;;;8.01;41.56
69219;BME280;56232;53.384;-2.732;2023-02-21T04:21:23;101416.05;;;7.78;41.66
69219;BME280;56232;53.384;-2.732;2023-02-21T04:23:50;101414.73;;;8.13;41.77
69219;BME280;56232;53.384;-2.732;2023-02-21T04:26:15;101414.46;;;7.41;41.83
69219;BME280;56232;53.384;-2.732;2023-02-21T04:28:40;101411.68;;;7.33;41.85
69219;BME280;56232;53.384;-2.732;2023-02-21T04:31:06;101408.62;;;7.67;41.95
69219;BME280;56232;53.384;-2.732;2023-02-21T04:33:32;101407.16;;;7.49;42.03
69219;BME280;56232;53.384;-2.732;2023-02-21T04:35:57;101401.78;;;7.46;42.02
69219;BME280;56232;53.384;-2.732;2023-02-21T04:38:23;101399.89;;;7.44;41.96
69219;BME280;56232;53.384;-2.732;2023-02-21T04:40:50;101399.87;;;6.75;42.03
69219;BME280;56232;53.384;-2.732;2023-02-21T04:43:14;101400.48;;;7.17;42.07
69219;BME280;56232;53.384;-2.732;2023-02-21T04:45:40;101397.72;;;7.17;42.05
69219;BME280;56232;53.384;-2.732;2023-02-21T04:48:06;101395.90;;;7.13;42.09
69219;BME280;56232;53.384;-2.732;2023-02-21T04:50:32;101396.13;;;7.13;42.04
69219;BME280;56232;53.384;-2.732;2023-02-21T04:52:57;101392.15;;;7.06;42.09
69219;BME280;56232;53.384;-2.732;2023-02-21T04:55:23;101388.69;;;6.51;42.02
69219;BME280;56232;53.384;-2.732;2023-02-21T04:57:50;101381.42;;;6.88;42.05
69219;BME280;56232;53.384;-2.732;2023-02-21T05:00:15;101379.99;;;6.80;42.17
69219;BME280;56232;53.384;-2.732;2023-02-21T05:02:41;101379.88;;;6.71;42.19
69219;BME280;56232;53.384;-2.732;2023-02-21T05:05:06;101381.24;;;6.64;42.28
69219;BME280;56232;53.384;-2.732;2023-02-21T05:07:32;101381.76;;;6.61;42.38
69219;BME280;56232;53.384;-2.732;2023-02-21T05:09:58;101381.92;;;6.59;42.27
69219;BME280;56232;53.384;-2.732;2023-02-21T05:12:23;101380.28;;;6.47;42.33
69219;BME280;56232;53.384;-2.732;2023-02-21T05:14:50;101378.81;;;6.40;42.31
69219;BME280;56232;53.384;-2.732;2023-02-21T05:17:15;101380.95;;;6.39;42.31
69219;BME280;56232;53.384;-2.732;2023-02-21T05:19:40;101381.41;;;6.26;42.27
69219;BME280;56232;53.384;-2.732;2023-02-21T05:22:06;101379.67;;;7.34;42.33
69219;BME280;56232;53.384;-2.732;2023-02-21T05:24:32;101379.76;;;6.83;42.17
69219;BME280;56232;53.384;-2.732;2023-02-21T05:26:58;101376.23;;;6.84;42.23
69219;BME280;56232;53.384;-2.732;2023-02-21T05:29:24;101373.43;;;6.78;42.16
69219;BME280;56232;53.384;-2.732;2023-02-21T05:31:50;101376.77;;;7.19;42.23
69219;BME280;56232;53.384;-2.732;2023-02-21T05:34:15;101370.25;;;6.02;42.14
69219;BME280;56232;53.384;-2.732;2023-02-21T05:36:41;101367.55;;;6.55;42.33
69219;BME280;56232;53.384;-2.732;2023-02-21T05:39:08;101365.42;;;6.57;42.19
69219;BME280;56232;53.384;-2.732;2023-02-21T05:41:33;101363.38;;;5.92;42.29
69219;BME280;56232;53.384;-2.732;2023-02-21T05:43:58;101362.33;;;7.03;42.28
69219;BME280;56232;53.384;-2.732;2023-02-21T05:46:26;101361.44;;;5.93;42.20
69219;BME280;56232;53.384;-2.732;2023-02-21T05:48:51;101358.40;;;6.46;42.11
69219;BME280;56232;53.384;-2.732;2023-02-21T05:51:16;101358.83;;;5.72;42.30
69219;BME280;56232;53.384;-2.732;2023-02-21T05:53:41;101359.28;;;6.82;42.28
69219;BME280;56232;53.384;-2.732;2023-02-21T05:56:07;101353.97;;;6.65;42.21
69219;BME280;56232;53.384;-2.732;2023-02-21T05:58:33;101352.56;;;6.06;42.31
69219;BME280;56232;53.384;-2.732;2023-02-21T06:00:58;101348.29;;;6.53;42.31
69219;BME280;56232;53.384;-2.732;2023-02-21T06:03:24;101342.98;;;7.07;42.20
69219;BME280;56232;53.384;-2.732;2023-02-21T06:05:55;101347.32;;;6.46;42.33
69219;BME280;56232;53.384;-2.732;2023-02-21T06:08:15;101347.67;;;5.88;42.32
69219;BME280;56232;53.384;-2.732;2023-02-21T06:10:41;101345.80;;;6.30;42.44
69219;BME280;56232;53.384;-2.732;2023-02-21T06:13:07;101341.30;;;5.71;42.54
69219;BME280;56232;53.384;-2.732;2023-02-21T06:15:33;101340.37;;;5.71;42.48
69219;BME280;56232;53.384;-2.732;2023-02-21T06:17:58;101340.33;;;6.31;42.48
69219;BME280;56232;53.384;-2.732;2023-02-21T06:20:24;101339.02;;;6.32;42.30
69219;BME280;56232;53.384;-2.732;2023-02-21T06:22:50;101339.59;;;6.30;42.20
69219;BME280;56232;53.384;-2.732;2023-02-21T06:25:16;101339.55;;;6.23;42.38
69219;BME280;56232;53.384;-2.732;2023-02-21T06:27:41;101339.30;;;6.19;42.33
69219;BME280;56232;53.384;-2.732;2023-02-21T06:30:08;101339.61;;;5.67;42.34
69219;BME280;56232;53.384;-2.732;2023-02-21T06:32:33;101340.76;;;6.22;42.22
69219;BME280;56232;53.384;-2.732;2023-02-21T06:34:58;101339.32;;;6.21;42.11
69219;BME280;56232;53.384;-2.732;2023-02-21T06:37:24;101337.27;;;5.76;42.00
69219;BME280;56232;53.384;-2.732;2023-02-21T06:39:50;101340.06;;;6.28;41.96
69219;BME280;56232;53.384;-2.732;2023-02-21T06:42:17;101338.14;;;6.29;42.04
69219;BME280;56232;53.384;-2.732;2023-02-21T06:44:42;101337.79;;;6.75;41.89
69219;BME280;56232;53.384;-2.732;2023-02-21T06:47:08;101335.66;;;6.19;41.90
69219;BME280;56232;53.384;-2.732;2023-02-21T06:49:33;101333.28;;;6.08;41.95
69219;BME280;56232;53.384;-2.732;2023-02-21T06:51:59;101334.88;;;6.02;42.18
69219;BME280;56232;53.384;-2.732;2023-02-21T06:54:25;101334.59;;;6.04;42.16
69219;BME280;56232;53.384;-2.732;2023-02-21T06:56:51;101336.15;;;6.03;42.21
69219;BME280;56232;53.384;-2.732;2023-02-21T06:59:16;101334.33;;;5.61;42.35
69219;BME280;56232;53.384;-2.732;2023-02-21T07:01:42;101331.48;;;6.66;42.34
69219;BME280;56232;53.384;-2.732;2023-02-21T07:04:08;101329.91;;;6.13;42.20
69219;BME280;56232;53.384;-2.732;2023-02-21T07:06:33;101329.30;;;6.03;41.97
69219;BME280;56232;53.384;-2.732;2023-02-21T07:08:59;101323.86;;;4.91;42.36
69219;BME280;56232;53.384;-2.732;2023-02-21T07:11:25;101326.07;;;6.02;42.36
69219;BME280;56232;53.384;-2.732;2023-02-21T07:13:51;101326.95;;;6.09;42.37
69219;BME280;56232;53.384;-2.732;2023-02-21T07:16:16;101324.08;;;6.14;42.33
69219;BME280;56232;53.384;-2.732;2023-02-21T07:18:42;101327.02;;;6.64;42.22
69219;BME280;56232;53.384;-2.732;2023-02-21T07:21:08;101324.01;;;6.12;42.17
69219;BME280;56232;53.384;-2.732;2023-02-21T07:23:34;101319.03;;;6.21;42.18
69219;BME280;56232;53.384;-2.732;2023-02-21T07:25:59;101316.39;;;6.22;42.19
69219;BME280;56232;53.384;-2.732;2023-02-21T07:28:25;101319.38;;;5.66;41.65
69219;BME280;56232;53.384;-2.732;2023-02-21T07:30:51;101316.75;;;6.18;42.00
69219;BME280;56232;53.384;-2.732;2023-02-21T07:33:17;101315.83;;;6.35;41.76
69219;BME280;56232;53.384;-2.732;2023-02-21T07:35:42;101314.61;;;5.91;41.71
69219;BME280;56232;53.384;-2.732;2023-02-21T07:38:08;101314.43;;;5.88;41.63
69219;BME280;56232;53.384;-2.732;2023-02-21T07:40:34;101314.07;;;6.44;41.80
69219;BME280;56232;53.384;-2.732;2023-02-21T07:43:00;101318.39;;;6.61;41.70
69219;BME280;56232;53.384;-2.732;2023-02-21T07:45:25;101316.17;;;6.21;41.46
69219;BME280;56232;53.384;-2.732;2023-02-21T07:47:51;101318.20;;;6.67;41.46
69219;BME280;56232;53.384;-2.732;2023-02-21T07:50:17;101318.36;;;6.86;41.65
69219;BME280;56232;53.384;-2.732;2023-02-21T07:52:44;101316.13;;;6.52;41.61
69219;BME280;56232;53.384;-2.732;2023-02-21T07:55:08;101313.62;;;6.73;41.37
69219;BME280;56232;53.384;-2.732;2023-02-21T07:57:34;101314.54;;;6.14;41.15
69219;BME280;56232;53.384;-2.732;2023-02-21T08:00:00;101313.42;;;6.87;41.10
69219;BME280;56232;53.384;-2.732;2023-02-21T08:02:26;101313.32;;;6.45;41.16
69219;BME280;56232;53.384;-2.732;2023-02-21T08:04:52;101313.50;;;7.27;41.16
69219;BME280;56232;53.384;-2.732;2023-02-21T08:07:18;101314.28;;;8.00;41.18
69219;BME280;56232;53.384;-2.732;2023-02-21T08:09:53;101315.46;;;7.31;41.05
69219;BME280;56232;53.384;-2.732;2023-02-21T08:12:09;101308.14;;;7.41;41.18
69219;BME280;56232;53.384;-2.732;2023-02-21T08:14:35;101309.90;;;7.54;41.10
69219;BME280;56232;53.384;-2.732;2023-02-21T08:17:00;101309.95;;;7.93;40.90
69219;BME280;56232;53.384;-2.732;2023-02-21T08:19:26;101311.81;;;8.20;40.69
69219;BME280;56232;53.384;-2.732;2023-02-21T08:21:52;101309.60;;;8.45;40.67
69219;BME280;56232;53.384;-2.732;2023-02-21T08:24:18;101311.38;;;8.59;40.61
69219;BME280;56232;53.384;-2.732;2023-02-21T08:26:43;101308.70;;;8.69;40.54
69219;BME280;56232;53.384;-2.732;2023-02-21T08:29:09;101305.58;;;7.79;40.35
69219;BME280;56232;53.384;-2.732;2023-02-21T08:31:35;101304.54;;;8.82;40.33
69219;BME280;56232;53.384;-2.732;2023-02-21T08:34:01;101302.77;;;7.81;39.86
69219;BME280;56232;53.384;-2.732;2023-02-21T08:36:30;101305.20;;;7.83;39.20
69219;BME280;56232;53.384;-2.732;2023-02-21T08:38:52;101305.61;;;8.35;39.54
69219;BME280;56232;53.384;-2.732;2023-02-21T08:41:18;101307.54;;;8.51;39.81
69219;BME280;56232;53.384;-2.732;2023-02-21T08:43:45;101310.30;;;8.18;39.98
69219;BME280;56232;53.384;-2.732;2023-02-21T08:46:09;101308.14;;;8.29;39.35
69219;BME280;56232;53.384;-2.732;2023-02-21T08:48:35;101302.09;;;8.35;39.61
69219;BME280;56232;53.384;-2.732;2023-02-21T08:51:02;101302.08;;;8.35;39.22
69219;BME280;56232;53.384;-2.732;2023-02-21T08:53:26;101304.72;;;8.46;39.08
69219;BME280;56232;53.384;-2.732;2023-02-21T08:55:52;101306.22;;;9.05;39.13
69219;BME280;56232;53.384;-2.732;2023-02-21T08:58:18;101309.93;;;8.57;38.71
69219;BME280;56232;53.384;-2.732;2023-02-21T09:00:44;101311.97;;;8.63;38.84
69219;BME280;56232;53.384;-2.732;2023-02-21T09:03:09;101312.26;;;8.77;38.99
69219;BME280;56232;53.384;-2.732;2023-02-21T09:05:35;101313.08;;;9.27;38.84
69219;BME280;56232;53.384;-2.732;2023-02-21T09:08:01;101309.23;;;8.86;38.90
69219;BME280;56232;53.384;-2.732;2023-02-21T09:10:28;101308.33;;;9.85;38.53
69219;BME280;56232;53.384;-2.732;2023-02-21T09:12:52;101311.95;;;9.27;38.61
69219;BME280;56232;53.384;-2.732;2023-02-21T09:15:18;101312.53;;;8.66;38.82
69219;BME280;56232;53.384;-2.732;2023-02-21T09:17:44;101314.34;;;8.76;38.85
69219;BME280;56232;53.384;-2.732;2023-02-21T09:20:14;101314.22;;;9.72;38.92
69219;BME280;56232;53.384;-2.732;2023-02-21T09:22:35;101311.84;;;9.85;38.12
69219;BME280;56232;53.384;-2.732;2023-02-21T09:25:01;101312.95;;;10.84;37.31
69219;BME280;56232;53.384;-2.732;2023-02-21T09:27:26;101310.61;;;11.49;36.39
69219;BME280;56232;53.384;-2.732;2023-02-21T09:29:52;101308.62;;;11.75;35.81
69219;BME280;56232;53.384;-2.732;2023-02-21T09:32:18;101303.63;;;11.71;35.41
69219;BME280;56232;53.384;-2.732;2023-02-21T09:34:43;101299.87;;;12.25;34.89
69219;BME280;56232;53.384;-2.732;2023-02-21T09:37:09;101302.46;;;12.04;35.22
69219;BME280;56232;53.384;-2.732;2023-02-21T09:39:36;101300.13;;;11.81;35.27
69219;BME280;56232;53.384;-2.732;2023-02-21T09:42:01;101299.90;;;12.20;35.43
69219;BME280;56232;53.384;-2.732;2023-02-21T09:44:27;101300.60;;;11.57;35.69
69219;BME280;56232;53.384;-2.732;2023-02-21T09:46:54;101302.61;;;11.74;35.66
69219;BME280;56232;53.384;-2.732;2023-02-21T09:49:21;101304.13;;;11.81;35.60
69219;BME280;56232;53.384;-2.732;2023-02-21T09:51:43;101306.93;;;11.90;35.52
69219;BME280;56232;53.384;-2.732;2023-02-21T09:54:17;101308.36;;;11.57;35.52
69219;BME280;56232;53.384;-2.732;2023-02-21T09:56:37;101307.27;;;12.36;35.24
69219;BME280;56232;53.384;-2.732;2023-02-21T09:59:00;101309.75;;;12.54;35.37
69219;BME280;56232;53.384;-2.732;2023-02-21T10:01:36;101313.45;;;11.90;35.29
69219;BME280;56232;53.384;-2.732;2023-02-21T10:04:00;101313.13;;;12.22;35.27
69219;BME280;56232;53.384;-2.732;2023-02-21T10:06:27;101315.61;;;12.03;35.52
69219;BME280;56232;53.384;-2.732;2023-02-21T10:11:21;101311.63;;;11.71;35.46
69219;BME280;56232;53.384;-2.732;2023-02-21T10:13:38;101303.42;;;11.77;35.51
69219;BME280;56232;53.384;-2.732;2023-02-21T10:16:04;101305.40;;;12.35;35.53
69219;BME280;56232;53.384;-2.732;2023-02-21T10:18:32;101303.62;;;11.86;35.74
69219;BME280;56232;53.384;-2.732;2023-02-21T10:20:53;101306.33;;;12.57;35.81
69219;BME280;56232;53.384;-2.732;2023-02-21T10:23:20;101304.87;;;12.63;35.61
69219;BME280;56232;53.384;-2.732;2023-02-21T10:25:44;101304.43;;;11.71;35.82
69219;BME280;56232;53.384;-2.732;2023-02-21T10:28:16;101298.93;;;12.72;35.65
69219;BME280;56232;53.384;-2.732;2023-02-21T10:30:36;101297.65;;;12.26;35.37
69219;BME280;56232;53.384;-2.732;2023-02-21T10:33:00;101298.81;;;12.38;35.65
69219;BME280;56232;53.384;-2.732;2023-02-21T10:35:25;101295.59;;;12.46;35.49
69219;BME280;56232;53.384;-2.732;2023-02-21T10:37:53;101301.15;;;12.73;35.42
69219;BME280;56232;53.384;-2.732;2023-02-21T10:40:26;101297.81;;;13.24;35.45
69219;BME280;56232;53.384;-2.732;2023-02-21T10:42:46;101298.72;;;12.83;35.45
69219;BME280;56232;53.384;-2.732;2023-02-21T10:45:10;101296.88;;;12.84;35.70
69219;BME280;56232;53.384;-2.732;2023-02-21T10:47:45;101298.10;;;12.42;35.60
69219;BME280;56232;53.384;-2.732;2023-02-21T10:50:02;101294.31;;;13.05;35.65
69219;BME280;56232;53.384;-2.732;2023-02-21T10:52:25;101295.32;;;13.37;35.70
69219;BME280;56232;53.384;-2.732;2023-02-21T10:55:00;101290.14;;;13.55;35.54
69219;BME280;56232;53.384;-2.732;2023-02-21T10:57:16;101292.94;;;13.36;35.32
69219;BME280;56232;53.384;-2.732;2023-02-21T10:59:42;101294.79;;;13.75;35.35
69219;BME280;56232;53.384;-2.732;2023-02-21T11:04:34;101293.88;;;13.92;34.92
69219;BME280;56232;53.384;-2.732;2023-02-21T11:07:02;101296.69;;;13.58;35.02
69219;BME280;56232;53.384;-2.732;2023-02-21T11:09:32;101293.76;;;13.55;35.17
69219;BME280;56232;53.384;-2.732;2023-02-21T11:12:01;101288.78;;;14.25;35.20
69219;BME280;56232;53.384;-2.732;2023-02-21T11:14:23;101286.16;;;13.76;35.29
69219;BME280;56232;53.384;-2.732;2023-02-21T11:16:42;101289.47;;;14.16;35.47
69219;BME280;56232;53.384;-2.732;2023-02-21T11:19:12;101287.88;;;13.57;34.78
69219;BME280;56232;53.384;-2.732;2023-02-21T11:21:33;101281.60;;;13.63;35.11
69219;BME280;56232;53.384;-2.732;2023-02-21T11:24:00;101277.34;;;14.14;35.20
69219;BME280;56232;53.384;-2.732;2023-02-21T11:26:24;101274.22;;;13.83;35.49
69219;BME280;56232;53.384;-2.732;2023-02-21T11:28:51;101265.85;;;14.07;35.05
69219;BME280;56232;53.384;-2.732;2023-02-21T11:31:19;101258.22;;;14.78;34.95
69219;BME280;56232;53.384;-2.732;2023-02-21T11:33:43;101255.15;;;14.44;34.82
69219;BME280;56232;53.384;-2.732;2023-02-21T11:36:09;101254.38;;;14.19;34.17
69219;BME280;56232;53.384;-2.732;2023-02-21T11:38:38;101249.52;;;14.13;34.30
69219;BME280;56232;53.384;-2.732;2023-02-21T11:40:56;101245.48;;;15.51;33.84
69219;BME280;56232;53.384;-2.732;2023-02-21T11:43:24;101245.22;;;14.76;33.84
69219;BME280;56232;53.384;-2.732;2023-02-21T11:45:58;101238.36;;;15.12;34.51
69219;BME280;56232;53.384;-2.732;2023-02-21T11:48:15;101237.58;;;15.18;34.24
69219;BME280;56232;53.384;-2.732;2023-02-21T11:50:41;101231.33;;;15.07;32.77
69219;BME280;56232;53.384;-2.732;2023-02-21T11:53:18;101228.90;;;15.27;31.97
69219;BME280;56232;53.384;-2.732;2023-02-21T11:55:30;101224.87;;;14.63;32.98
69219;BME280;56232;53.384;-2.732;2023-02-21T11:58:05;101224.23;;;15.29;32.63
69219;BME280;56232;53.384;-2.732;2023-02-21T12:00:28;101221.58;;;15.40;34.04
69219;BME280;56232;53.384;-2.732;2023-02-21T12:02:57;101222.76;;;15.11;33.52
69219;BME280;56232;53.384;-2.732;2023-02-21T12:05:22;101218.84;;;14.86;32.77
69219;BME280;56232;53.384;-2.732;2023-02-21T12:07:45;101213.73;;;15.46;33.11
69219;BME280;56232;53.384;-2.732;2023-02-21T12:10:12;101208.44;;;15.15;33.45
69219;BME280;56232;53.384;-2.732;2023-02-21T12:12:39;101202.78;;;14.49;32.79
69219;BME280;56232;53.384;-2.732;2023-02-21T12:15:02;101202.20;;;14.80;33.11
69219;BME280;56232;53.384;-2.732;2023-02-21T12:17:34;101198.11;;;15.08;33.53
69219;BME280;56232;53.384;-2.732;2023-02-21T12:20:00;101188.83;;;14.34;33.17
69219;BME280;56232;53.384;-2.732;2023-02-21T12:22:21;101194.11;;;14.13;34.14
69219;BME280;56232;53.384;-2.732;2023-02-21T12:24:49;101186.96;;;15.26;32.86
69219;BME280;56232;53.384;-2.732;2023-02-21T12:27:07;101181.78;;;14.32;34.63
69219;BME280;56232;53.384;-2.732;2023-02-21T12:29:41;101178.51;;;14.26;33.83
69219;BME280;56232;53.384;-2.732;2023-02-21T12:32:09;101176.11;;;14.78;34.01
69219;BME280;56232;53.384;-2.732;2023-02-21T12:34:30;101169.95;;;14.43;33.95
69219;BME280;56232;53.384;-2.732;2023-02-21T12:36:54;101166.57;;;14.99;34.88
69219;BME280;56232;53.384;-2.732;2023-02-21T12:39:20;101164.24;;;15.11;34.37
69219;BME280;56232;53.384;-2.732;2023-02-21T12:41:47;101160.50;;;14.53;33.33
69219;BME280;56232;53.384;-2.732;2023-02-21T12:44:11;101156.01;;;15.01;32.56
69219;BME280;56232;53.384;-2.732;2023-02-21T12:46:33;101151.47;;;14.33;34.36
69219;BME280;56232;53.384;-2.732;2023-02-21T12:48:58;101148.73;;;14.54;34.39
69219;BME280;56232;53.384;-2.732;2023-02-21T12:51:21;101142.76;;;14.70;33.93